sensor_id;sensor_type;location;lat;lon;timestamp;temperature;humidity
18426;DHT22;9340;48.756;9.226;2023-05-07T00:01:04;13.50;99.90
18426;DHT22;9340;48.756;9.226;2023-05-07T00:03:31;13.50;99.90
18426;DHT22;9340;48.756;9.226;2023-05-07T00:05:58;13.40;99.90
18426;DHT22;9340;48.756;9.226;2023-05-07T00:08:25;13.30;99.90
18426;DHT22;9340;48.756;9.226;2023-05-07T00:10:52;13.40;99.90
18426;DHT22;9340;48.756;9.226;2023-05-07T00:13:18;13.30;99.90
18426;DHT22;9340;48.756;9.226;2023-05-07T00:15:45;13.30;99.90
18426;DHT22;9340;48.756;9.226;2023-05-07T00:18:13;13.20;99.90
18426;DHT22;9340;48.756;9.226;2023-05-07T00:20:40;13.00;99.90
18426;DHT22;9340;48.756;9.226;2023-05-07T00:23:06;13.00;99.90
18426;DHT22;9340;48.756;9.226;2023-05-07T00:25:33;12.90;99.90
18426;DHT22;9340;48.756;9.226;2023-05-07T00:28:00;12.90;99.90
18426;DHT22;9340;48.756;9.226;2023-05-07T00:30:29;12.90;99.90
18426;DHT22;9340;48.756;9.226;2023-05-07T00:32:55;12.80;99.90
18426;DHT22;9340;48.756;9.226;2023-05-07T00:35:23;12.90;99.90
18426;DHT22;9340;48.756;9.226;2023-05-07T00:37:50;12.90;99.90
18426;DHT22;9340;48.756;9.226;2023-05-07T00:40:17;12.80;99.90
18426;DHT22;9340;48.756;9.226;2023-05-07T00:42:43;12.80;99.90
18426;DHT22;9340;48.756;9.226;2023-05-07T00:45:12;12.80;99.90
18426;DHT22;9340;48.756;9.226;2023-05-07T00:47:39;12.80;99.90
18426;DHT22;9340;48.756;9.226;2023-05-07T00:50:07;12.80;99.90
18426;DHT22;9340;48.756;9.226;2023-05-07T00:52:36;12.70;99.90
18426;DHT22;9340;48.756;9.226;2023-05-07T00:55:05;12.70;99.90
18426;DHT22;9340;48.756;9.226;2023-05-07T00:57:33;12.70;99.90
18426;DHT22;9340;48.756;9.226;2023-05-07T01:00:03;12.60;99.90
18426;DHT22;9340;48.756;9.226;2023-05-07T01:02:30;12.60;99.90
18426;DHT22;9340;48.756;9.226;2023-05-07T01:04:57;12.60;99.90
18426;DHT22;9340;48.756;9.226;2023-05-07T01:07:23;12.60;99.90
18426;DHT22;9340;48.756;9.226;2023-05-07T01:09:52;12.60;99.90
18426;DHT22;9340;48.756;9.226;2023-05-07T01:12:18;12.50;99.90
18426;DHT22;9340;48.756;9.226;2023-05-07T01:14:45;12.50;99.90
18426;DHT22;9340;48.756;9.226;2023-05-07T01:17:14;12.50;99.90
18426;DHT22;9340;48.756;9.226;2023-05-07T01:19:41;12.50;99.90
18426;DHT22;9340;48.756;9.226;2023-05-07T01:22:09;12.50;99.90
18426;DHT22;9340;48.756;9.226;2023-05-07T01:24:37;12.50;99.90
18426;DHT22;9340;48.756;9.226;2023-05-07T01:27:04;12.40;99.90
18426;DHT22;9340;48.756;9.226;2023-05-07T01:29:31;12.40;99.90
18426;DHT22;9340;48.756;9.226;2023-05-07T01:31:59;12.30;99.90
18426;DHT22;9340;48.756;9.226;2023-05-07T01:34:27;12.40;99.90
18426;DHT22;9340;48.756;9.226;2023-05-07T01:36:55;12.30;99.90
18426;DHT22;9340;48.756;9.226;2023-05-07T01:39:24;12.30;99.90
18426;DHT22;9340;48.756;9.226;2023-05-07T01:41:53;12.30;99.90
18426;DHT22;9340;48.756;9.226;2023-05-07T01:44:21;12.30;99.90
18426;DHT22;9340;48.756;9.226;2023-05-07T01:46:48;12.20;99.90
18426;DHT22;9340;48.756;9.226;2023-05-07T01:49:16;12.20;99.90
18426;DHT22;9340;48.756;9.226;2023-05-07T01:51:43;12.20;99.90
18426;DHT22;9340;48.756;9.226;2023-05-07T01:54:10;12.10;99.90
18426;DHT22;9340;48.756;9.226;2023-05-07T01:56:36;12.10;99.90
18426;DHT22;9340;48.756;9.226;2023-05-07T01:59:05;12.10;99.90
18426;DHT22;9340;48.756;9.226;2023-05-07T02:01:31;12.10;99.90
18426;DHT22;9340;48.756;9.226;2023-05-07T02:03:58;12.00;99.90
18426;DHT22;9340;48.756;9.226;2023-05-07T02:06:24;12.00;99.90
18426;DHT22;9340;48.756;9.226;2023-05-07T02:08:51;12.00;99.90
18426;DHT22;9340;48.756;9.226;2023-05-07T02:11:18;12.00;99.90
18426;DHT22;9340;48.756;9.226;2023-05-07T02:13:45;11.90;99.90
18426;DHT22;9340;48.756;9.226;2023-05-07T02:16:13;11.90;99.90
18426;DHT22;9340;48.756;9.226;2023-05-07T02:18:40;11.90;99.90
18426;DHT22;9340;48.756;9.226;2023-05-07T02:21:06;11.80;99.90
18426;DHT22;9340;48.756;9.226;2023-05-07T02:23:33;11.90;99.90
18426;DHT22;9340;48.756;9.226;2023-05-07T02:26:00;11.80;99.90
18426;DHT22;9340;48.756;9.226;2023-05-07T02:28:26;11.80;99.90
18426;DHT22;9340;48.756;9.226;2023-05-07T02:30:53;11.70;99.90
18426;DHT22;9340;48.756;9.226;2023-05-07T02:33:21;11.80;99.90
18426;DHT22;9340;48.756;9.226;2023-05-07T02:35:48;11.80;99.90
18426;DHT22;9340;48.756;9.226;2023-05-07T02:38:14;11.90;99.90
18426;DHT22;9340;48.756;9.226;2023-05-07T02:40:41;11.90;99.90
18426;DHT22;9340;48.756;9.226;2023-05-07T02:43:08;11.80;99.90
18426;DHT22;9340;48.756;9.226;2023-05-07T02:45:34;11.70;99.90
18426;DHT22;9340;48.756;9.226;2023-05-07T02:48:03;11.60;99.90
18426;DHT22;9340;48.756;9.226;2023-05-07T02:50:32;11.60;99.90
18426;DHT22;9340;48.756;9.226;2023-05-07T02:52:58;11.50;99.90
18426;DHT22;9340;48.756;9.226;2023-05-07T02:55:25;11.40;99.90
18426;DHT22;9340;48.756;9.226;2023-05-07T02:57:52;11.40;99.90
18426;DHT22;9340;48.756;9.226;2023-05-07T03:00:19;11.30;99.90
18426;DHT22;9340;48.756;9.226;2023-05-07T03:02:46;11.40;99.90
18426;DHT22;9340;48.756;9.226;2023-05-07T03:05:13;11.40;99.90
18426;DHT22;9340;48.756;9.226;2023-05-07T03:07:41;11.30;99.90
18426;DHT22;9340;48.756;9.226;2023-05-07T03:10:10;11.20;99.90
18426;DHT22;9340;48.756;9.226;2023-05-07T03:12:37;11.30;99.90
18426;DHT22;9340;48.756;9.226;2023-05-07T03:15:05;11.20;99.90
18426;DHT22;9340;48.756;9.226;2023-05-07T03:17:32;11.10;99.90
18426;DHT22;9340;48.756;9.226;2023-05-07T03:19:58;11.10;99.90
18426;DHT22;9340;48.756;9.226;2023-05-07T03:22:25;11.20;99.90
18426;DHT22;9340;48.756;9.226;2023-05-07T03:24:53;11.10;99.90
18426;DHT22;9340;48.756;9.226;2023-05-07T03:27:20;11.00;99.90
18426;DHT22;9340;48.756;9.226;2023-05-07T03:29:46;11.00;99.90
18426;DHT22;9340;48.756;9.226;2023-05-07T03:32:13;11.00;99.90
18426;DHT22;9340;48.756;9.226;2023-05-07T03:34:40;11.00;99.90
18426;DHT22;9340;48.756;9.226;2023-05-07T03:37:06;11.00;99.90
18426;DHT22;9340;48.756;9.226;2023-05-07T03:39:33;10.90;99.90
18426;DHT22;9340;48.756;9.226;2023-05-07T03:42:02;11.00;99.90
18426;DHT22;9340;48.756;9.226;2023-05-07T03:44:30;11.00;99.90
18426;DHT22;9340;48.756;9.226;2023-05-07T03:47:09;11.00;99.90
18426;DHT22;9340;48.756;9.226;2023-05-07T03:52:49;10.90;99.90
18426;DHT22;9340;48.756;9.226;2023-05-07T03:55:16;11.00;99.90
18426;DHT22;9340;48.756;9.226;2023-05-07T03:57:44;11.10;99.90
18426;DHT22;9340;48.756;9.226;2023-05-07T04:00:12;11.10;99.90
18426;DHT22;9340;48.756;9.226;2023-05-07T04:02:39;11.10;99.90
18426;DHT22;9340;48.756;9.226;2023-05-07T04:05:06;11.10;99.90
18426;DHT22;9340;48.756;9.226;2023-05-07T04:07:33;11.10;99.90
18426;DHT22;9340;48.756;9.226;2023-05-07T04:09:59;11.10;99.90
18426;DHT22;9340;48.756;9.226;2023-05-07T04:12:26;11.00;99.90
18426;DHT22;9340;48.756;9.226;2023-05-07T04:14:54;11.10;99.90
18426;DHT22;9340;48.756;9.226;2023-05-07T04:17:21;11.10;99.90
18426;DHT22;9340;48.756;9.226;2023-05-07T04:19:48;11.10;99.90
18426;DHT22;9340;48.756;9.226;2023-05-07T04:22:15;11.20;99.90
18426;DHT22;9340;48.756;9.226;2023-05-07T04:24:41;11.30;99.90
18426;DHT22;9340;48.756;9.226;2023-05-07T04:27:08;11.30;99.90
18426;DHT22;9340;48.756;9.226;2023-05-07T04:29:34;11.40;99.90
18426;DHT22;9340;48.756;9.226;2023-05-07T04:32:03;11.40;99.90
18426;DHT22;9340;48.756;9.226;2023-05-07T04:34:29;11.50;99.90
18426;DHT22;9340;48.756;9.226;2023-05-07T04:36:58;11.60;99.90
18426;DHT22;9340;48.756;9.226;2023-05-07T04:39:25;11.70;99.90
18426;DHT22;9340;48.756;9.226;2023-05-07T04:41:51;11.90;99.90
18426;DHT22;9340;48.756;9.226;2023-05-07T04:44:18;11.80;99.90
18426;DHT22;9340;48.756;9.226;2023-05-07T04:46:45;11.90;99.90
18426;DHT22;9340;48.756;9.226;2023-05-07T04:49:13;12.00;99.90
18426;DHT22;9340;48.756;9.226;2023-05-07T04:51:39;12.10;99.90
18426;DHT22;9340;48.756;9.226;2023-05-07T04:54:08;12.10;99.90
18426;DHT22;9340;48.756;9.226;2023-05-07T04:56:34;12.10;99.90
18426;DHT22;9340;48.756;9.226;2023-05-07T04:59:01;12.20;99.90
18426;DHT22;9340;48.756;9.226;2023-05-07T05:01:28;12.20;99.90
18426;DHT22;9340;48.756;9.226;2023-05-07T05:03:54;12.10;99.90
18426;DHT22;9340;48.756;9.226;2023-05-07T05:06:22;12.00;99.90
18426;DHT22;9340;48.756;9.226;2023-05-07T05:08:49;12.00;99.90
18426;DHT22;9340;48.756;9.226;2023-05-07T05:11:16;12.00;99.90
18426;DHT22;9340;48.756;9.226;2023-05-07T05:13:42;12.00;99.90
18426;DHT22;9340;48.756;9.226;2023-05-07T05:16:09;12.10;99.90
18426;DHT22;9340;48.756;9.226;2023-05-07T05:18:36;12.20;99.90
18426;DHT22;9340;48.756;9.226;2023-05-07T05:21:03;12.20;99.90
18426;DHT22;9340;48.756;9.226;2023-05-07T05:23:31;12.20;99.90
18426;DHT22;9340;48.756;9.226;2023-05-07T05:25:58;12.30;99.90
18426;DHT22;9340;48.756;9.226;2023-05-07T05:28:25;12.50;99.90
18426;DHT22;9340;48.756;9.226;2023-05-07T05:30:52;12.70;99.90
18426;DHT22;9340;48.756;9.226;2023-05-07T05:33:19;13.10;99.90
18426;DHT22;9340;48.756;9.226;2023-05-07T05:35:46;13.50;99.90
18426;DHT22;9340;48.756;9.226;2023-05-07T05:38:13;13.90;99.90
18426;DHT22;9340;48.756;9.226;2023-05-07T05:40:41;14.30;99.90
18426;DHT22;9340;48.756;9.226;2023-05-07T05:43:08;15.50;99.90
18426;DHT22;9340;48.756;9.226;2023-05-07T05:45:34;17.30;99.90
18426;DHT22;9340;48.756;9.226;2023-05-07T05:48:01;18.90;99.90
18426;DHT22;9340;48.756;9.226;2023-05-07T05:50:28;20.10;99.90
18426;DHT22;9340;48.756;9.226;2023-05-07T05:52:54;20.90;99.90
18426;DHT22;9340;48.756;9.226;2023-05-07T05:55:21;20.00;99.90
18426;DHT22;9340;48.756;9.226;2023-05-07T05:57:50;19.20;99.90
18426;DHT22;9340;48.756;9.226;2023-05-07T06:00:16;19.30;99.90
18426;DHT22;9340;48.756;9.226;2023-05-07T06:02:43;20.00;99.90
18426;DHT22;9340;48.756;9.226;2023-05-07T06:05:10;20.40;99.90
18426;DHT22;9340;48.756;9.226;2023-05-07T06:07:36;20.40;99.90
18426;DHT22;9340;48.756;9.226;2023-05-07T06:10:04;20.40;99.90
18426;DHT22;9340;48.756;9.226;2023-05-07T06:12:31;20.30;99.90
18426;DHT22;9340;48.756;9.226;2023-05-07T06:14:59;20.10;99.90
18426;DHT22;9340;48.756;9.226;2023-05-07T06:17:26;19.90;99.90
18426;DHT22;9340;48.756;9.226;2023-05-07T06:19:53;19.90;99.90
18426;DHT22;9340;48.756;9.226;2023-05-07T06:22:20;19.50;99.90
18426;DHT22;9340;48.756;9.226;2023-05-07T06:24:47;19.20;99.90
18426;DHT22;9340;48.756;9.226;2023-05-07T06:27:13;18.90;99.90
18426;DHT22;9340;48.756;9.226;2023-05-07T06:29:40;18.30;99.90
18426;DHT22;9340;48.756;9.226;2023-05-07T06:32:08;18.00;99.90
18426;DHT22;9340;48.756;9.226;2023-05-07T06:34:36;17.80;99.90
18426;DHT22;9340;48.756;9.226;2023-05-07T06:37:02;17.50;99.90
18426;DHT22;9340;48.756;9.226;2023-05-07T06:39:29;17.20;99.90
18426;DHT22;9340;48.756;9.226;2023-05-07T06:41:56;17.00;99.90
18426;DHT22;9340;48.756;9.226;2023-05-07T06:44:23;16.70;99.90
18426;DHT22;9340;48.756;9.226;2023-05-07T06:46:50;16.70;99.90
18426;DHT22;9340;48.756;9.226;2023-05-07T06:49:18;16.60;99.90
18426;DHT22;9340;48.756;9.226;2023-05-07T06:51:44;16.60;99.90
18426;DHT22;9340;48.756;9.226;2023-05-07T06:54:11;16.50;99.90
18426;DHT22;9340;48.756;9.226;2023-05-07T06:56:38;16.40;99.90
18426;DHT22;9340;48.756;9.226;2023-05-07T06:59:05;16.40;99.90
18426;DHT22;9340;48.756;9.226;2023-05-07T07:01:32;16.50;99.90
18426;DHT22;9340;48.756;9.226;2023-05-07T07:03:59;16.60;99.90
18426;DHT22;9340;48.756;9.226;2023-05-07T07:06:27;16.70;99.90
18426;DHT22;9340;48.756;9.226;2023-05-07T07:08:53;16.90;99.90
18426;DHT22;9340;48.756;9.226;2023-05-07T07:11:20;17.10;99.90
18426;DHT22;9340;48.756;9.226;2023-05-07T07:13:47;17.20;99.90
18426;DHT22;9340;48.756;9.226;2023-05-07T07:16:13;17.30;99.90
18426;DHT22;9340;48.756;9.226;2023-05-07T07:18:40;17.40;99.90
18426;DHT22;9340;48.756;9.226;2023-05-07T07:21:07;17.60;99.90
18426;DHT22;9340;48.756;9.226;2023-05-07T07:23:35;17.80;99.90
18426;DHT22;9340;48.756;9.226;2023-05-07T07:26:02;18.00;99.90
18426;DHT22;9340;48.756;9.226;2023-05-07T07:28:28;18.20;99.90
18426;DHT22;9340;48.756;9.226;2023-05-07T07:30:55;18.50;99.90
18426;DHT22;9340;48.756;9.226;2023-05-07T07:33:21;18.80;99.90
18426;DHT22;9340;48.756;9.226;2023-05-07T07:35:48;19.10;99.90
18426;DHT22;9340;48.756;9.226;2023-05-07T07:38:15;19.30;99.90
18426;DHT22;9340;48.756;9.226;2023-05-07T07:40:43;19.50;99.90
18426;DHT22;9340;48.756;9.226;2023-05-07T07:43:11;19.70;99.90
18426;DHT22;9340;48.756;9.226;2023-05-07T07:45:37;20.10;99.90
18426;DHT22;9340;48.756;9.226;2023-05-07T07:48:05;20.40;99.90
18426;DHT22;9340;48.756;9.226;2023-05-07T07:50:31;20.70;99.90
18426;DHT22;9340;48.756;9.226;2023-05-07T07:52:58;21.00;99.90
18426;DHT22;9340;48.756;9.226;2023-05-07T07:55:25;21.20;99.90
18426;DHT22;9340;48.756;9.226;2023-05-07T07:57:54;21.40;99.90
18426;DHT22;9340;48.756;9.226;2023-05-07T08:00:20;21.80;99.90
18426;DHT22;9340;48.756;9.226;2023-05-07T08:02:47;22.10;99.90
18426;DHT22;9340;48.756;9.226;2023-05-07T08:05:14;22.60;99.90
18426;DHT22;9340;48.756;9.226;2023-05-07T08:07:40;23.10;99.90
18426;DHT22;9340;48.756;9.226;2023-05-07T08:10:08;23.40;99.90
18426;DHT22;9340;48.756;9.226;2023-05-07T08:12:34;23.60;99.90
18426;DHT22;9340;48.756;9.226;2023-05-07T08:15:03;23.80;99.90
18426;DHT22;9340;48.756;9.226;2023-05-07T08:17:30;23.70;99.90
18426;DHT22;9340;48.756;9.226;2023-05-07T08:19:56;23.70;99.90
18426;DHT22;9340;48.756;9.226;2023-05-07T08:22:23;23.60;99.90
18426;DHT22;9340;48.756;9.226;2023-05-07T08:24:50;23.60;99.90
18426;DHT22;9340;48.756;9.226;2023-05-07T08:27:18;23.60;99.90
18426;DHT22;9340;48.756;9.226;2023-05-07T08:29:45;23.80;99.90
18426;DHT22;9340;48.756;9.226;2023-05-07T08:32:14;23.90;99.90
18426;DHT22;9340;48.756;9.226;2023-05-07T08:34:41;24.00;99.90
18426;DHT22;9340;48.756;9.226;2023-05-07T08:37:08;24.20;99.90
18426;DHT22;9340;48.756;9.226;2023-05-07T08:39:34;24.30;99.90
18426;DHT22;9340;48.756;9.226;2023-05-07T08:42:01;24.20;99.90
18426;DHT22;9340;48.756;9.226;2023-05-07T08:44:32;24.10;99.90
18426;DHT22;9340;48.756;9.226;2023-05-07T08:47:01;23.90;99.90
18426;DHT22;9340;48.756;9.226;2023-05-07T08:49:29;23.70;99.90
18426;DHT22;9340;48.756;9.226;2023-05-07T08:51:55;23.50;99.90
18426;DHT22;9340;48.756;9.226;2023-05-07T08:54:22;23.40;99.90
18426;DHT22;9340;48.756;9.226;2023-05-07T08:56:50;23.20;99.90
18426;DHT22;9340;48.756;9.226;2023-05-07T08:59:16;23.10;99.90
18426;DHT22;9340;48.756;9.226;2023-05-07T09:01:43;22.90;99.90
18426;DHT22;9340;48.756;9.226;2023-05-07T09:04:10;22.70;99.90
18426;DHT22;9340;48.756;9.226;2023-05-07T09:06:39;22.70;99.90
18426;DHT22;9340;48.756;9.226;2023-05-07T09:09:07;22.60;99.90
18426;DHT22;9340;48.756;9.226;2023-05-07T09:11:34;22.50;99.90
18426;DHT22;9340;48.756;9.226;2023-05-07T09:14:01;22.40;99.90
18426;DHT22;9340;48.756;9.226;2023-05-07T09:16:29;22.40;99.90
18426;DHT22;9340;48.756;9.226;2023-05-07T09:18:58;22.60;99.90
18426;DHT22;9340;48.756;9.226;2023-05-07T09:21:25;22.70;99.90
18426;DHT22;9340;48.756;9.226;2023-05-07T09:23:55;22.90;99.90
18426;DHT22;9340;48.756;9.226;2023-05-07T09:26:22;23.00;99.90
18426;DHT22;9340;48.756;9.226;2023-05-07T09:28:48;23.00;99.90
18426;DHT22;9340;48.756;9.226;2023-05-07T09:31:15;23.00;99.90
18426;DHT22;9340;48.756;9.226;2023-05-07T09:33:42;23.00;99.90
18426;DHT22;9340;48.756;9.226;2023-05-07T09:36:09;23.10;99.90
18426;DHT22;9340;48.756;9.226;2023-05-07T09:38:37;23.20;99.90
18426;DHT22;9340;48.756;9.226;2023-05-07T09:41:07;23.20;99.90
18426;DHT22;9340;48.756;9.226;2023-05-07T09:43:34;23.30;99.90
18426;DHT22;9340;48.756;9.226;2023-05-07T09:46:03;23.40;99.90
18426;DHT22;9340;48.756;9.226;2023-05-07T09:48:35;23.40;99.90
18426;DHT22;9340;48.756;9.226;2023-05-07T09:51:07;23.60;99.90
18426;DHT22;9340;48.756;9.226;2023-05-07T09:53:35;23.60;99.90
18426;DHT22;9340;48.756;9.226;2023-05-07T09:56:03;23.70;99.90
18426;DHT22;9340;48.756;9.226;2023-05-07T09:58:32;23.70;99.90
18426;DHT22;9340;48.756;9.226;2023-05-07T10:01:00;23.70;99.90
18426;DHT22;9340;48.756;9.226;2023-05-07T10:03:29;23.70;99.90
18426;DHT22;9340;48.756;9.226;2023-05-07T10:05:58;23.70;99.90
18426;DHT22;9340;48.756;9.226;2023-05-07T10:08:25;23.80;99.90
18426;DHT22;9340;48.756;9.226;2023-05-07T10:10:52;23.90;99.90
18426;DHT22;9340;48.756;9.226;2023-05-07T10:13:19;23.90;99.90
18426;DHT22;9340;48.756;9.226;2023-05-07T10:15:47;24.00;99.90
18426;DHT22;9340;48.756;9.226;2023-05-07T10:18:15;24.10;99.90
18426;DHT22;9340;48.756;9.226;2023-05-07T10:20:43;24.20;99.90
18426;DHT22;9340;48.756;9.226;2023-05-07T10:23:14;24.10;99.90
18426;DHT22;9340;48.756;9.226;2023-05-07T10:25:41;24.10;99.90
18426;DHT22;9340;48.756;9.226;2023-05-07T10:28:10;24.10;99.90
18426;DHT22;9340;48.756;9.226;2023-05-07T10:30:48;24.20;99.90
18426;DHT22;9340;48.756;9.226;2023-05-07T10:33:22;24.20;99.90
18426;DHT22;9340;48.756;9.226;2023-05-07T10:35:50;24.40;99.90
18426;DHT22;9340;48.756;9.226;2023-05-07T10:38:17;24.50;99.90
18426;DHT22;9340;48.756;9.226;2023-05-07T10:40:44;24.90;99.90
18426;DHT22;9340;48.756;9.226;2023-05-07T10:43:11;25.30;99.90
18426;DHT22;9340;48.756;9.226;2023-05-07T10:45:38;25.80;99.90
18426;DHT22;9340;48.756;9.226;2023-05-07T10:48:11;26.00;99.90
18426;DHT22;9340;48.756;9.226;2023-05-07T10:50:38;25.90;99.90
18426;DHT22;9340;48.756;9.226;2023-05-07T10:53:22;26.10;99.90
18426;DHT22;9340;48.756;9.226;2023-05-07T10:56:23;26.00;99.90
18426;DHT22;9340;48.756;9.226;2023-05-07T10:58:40;25.90;99.90
18426;DHT22;9340;48.756;9.226;2023-05-07T11:01:07;25.70;99.90
18426;DHT22;9340;48.756;9.226;2023-05-07T11:03:33;25.50;99.90
18426;DHT22;9340;48.756;9.226;2023-05-07T11:06:10;25.70;99.90
18426;DHT22;9340;48.756;9.226;2023-05-07T11:08:53;26.10;99.90
18426;DHT22;9340;48.756;9.226;2023-05-07T11:11:45;26.80;99.90
18426;DHT22;9340;48.756;9.226;2023-05-07T11:14:13;27.20;99.90
18426;DHT22;9340;48.756;9.226;2023-05-07T11:16:41;27.70;99.90
18426;DHT22;9340;48.756;9.226;2023-05-07T11:19:08;27.80;99.90
18426;DHT22;9340;48.756;9.226;2023-05-07T11:21:35;28.00;99.90
18426;DHT22;9340;48.756;9.226;2023-05-07T11:24:03;27.90;99.90
18426;DHT22;9340;48.756;9.226;2023-05-07T11:26:32;28.40;99.90
18426;DHT22;9340;48.756;9.226;2023-05-07T11:29:12;29.00;99.90
18426;DHT22;9340;48.756;9.226;2023-05-07T11:31:39;29.00;99.90
18426;DHT22;9340;48.756;9.226;2023-05-07T11:34:06;28.50;99.90
18426;DHT22;9340;48.756;9.226;2023-05-07T11:36:34;28.20;99.90
18426;DHT22;9340;48.756;9.226;2023-05-07T11:39:01;27.60;99.90
18426;DHT22;9340;48.756;9.226;2023-05-07T11:41:34;27.30;99.90
18426;DHT22;9340;48.756;9.226;2023-05-07T11:44:01;27.20;99.90
18426;DHT22;9340;48.756;9.226;2023-05-07T11:46:29;26.80;99.90
18426;DHT22;9340;48.756;9.226;2023-05-07T11:48:56;26.20;99.90
18426;DHT22;9340;48.756;9.226;2023-05-07T11:51:24;25.70;99.90
18426;DHT22;9340;48.756;9.226;2023-05-07T11:53:52;25.40;99.90
18426;DHT22;9340;48.756;9.226;2023-05-07T11:56:19;25.30;99.90
18426;DHT22;9340;48.756;9.226;2023-05-07T11:58:47;25.20;99.90
18426;DHT22;9340;48.756;9.226;2023-05-07T12:01:14;24.80;99.90
18426;DHT22;9340;48.756;9.226;2023-05-07T12:03:45;24.90;99.90
18426;DHT22;9340;48.756;9.226;2023-05-07T12:06:13;24.80;99.90
18426;DHT22;9340;48.756;9.226;2023-05-07T12:08:42;24.50;99.90
18426;DHT22;9340;48.756;9.226;2023-05-07T12:11:09;24.30;99.90
18426;DHT22;9340;48.756;9.226;2023-05-07T12:13:37;24.00;99.90
18426;DHT22;9340;48.756;9.226;2023-05-07T12:16:05;23.70;99.90
18426;DHT22;9340;48.756;9.226;2023-05-07T12:18:33;23.50;99.90
18426;DHT22;9340;48.756;9.226;2023-05-07T12:21:01;23.30;99.90
18426;DHT22;9340;48.756;9.226;2023-05-07T12:23:29;23.00;99.90
18426;DHT22;9340;48.756;9.226;2023-05-07T12:25:56;22.90;99.90
18426;DHT22;9340;48.756;9.226;2023-05-07T12:28:22;22.80;99.90
18426;DHT22;9340;48.756;9.226;2023-05-07T12:30:51;22.60;99.90
18426;DHT22;9340;48.756;9.226;2023-05-07T12:33:24;22.50;99.90
18426;DHT22;9340;48.756;9.226;2023-05-07T12:35:50;22.20;99.90
18426;DHT22;9340;48.756;9.226;2023-05-07T12:38:20;22.10;99.90
18426;DHT22;9340;48.756;9.226;2023-05-07T12:40:49;22.10;99.90
18426;DHT22;9340;48.756;9.226;2023-05-07T12:43:17;22.00;99.90
18426;DHT22;9340;48.756;9.226;2023-05-07T12:45:45;21.90;99.90
18426;DHT22;9340;48.756;9.226;2023-05-07T12:48:13;21.50;99.90
18426;DHT22;9340;48.756;9.226;2023-05-07T12:50:39;21.30;99.90
18426;DHT22;9340;48.756;9.226;2023-05-07T12:53:07;21.00;99.90
18426;DHT22;9340;48.756;9.226;2023-05-07T12:55:42;20.80;99.90
18426;DHT22;9340;48.756;9.226;2023-05-07T12:58:15;20.50;99.90
18426;DHT22;9340;48.756;9.226;2023-05-07T13:00:42;20.20;99.90
18426;DHT22;9340;48.756;9.226;2023-05-07T13:03:09;19.90;99.90
18426;DHT22;9340;48.756;9.226;2023-05-07T13:05:36;19.80;99.90
18426;DHT22;9340;48.756;9.226;2023-05-07T13:08:03;19.60;99.90
18426;DHT22;9340;48.756;9.226;2023-05-07T13:10:30;18.90;99.90
18426;DHT22;9340;48.756;9.226;2023-05-07T13:12:59;17.20;99.90
18426;DHT22;9340;48.756;9.226;2023-05-07T13:15:25;15.60;99.90
18426;DHT22;9340;48.756;9.226;2023-05-07T13:17:52;13.90;99.90
18426;DHT22;9340;48.756;9.226;2023-05-07T13:20:19;13.60;99.90
18426;DHT22;9340;48.756;9.226;2023-05-07T13:22:46;13.50;99.90
18426;DHT22;9340;48.756;9.226;2023-05-07T13:25:12;13.80;99.90
18426;DHT22;9340;48.756;9.226;2023-05-07T13:27:39;13.90;99.90
18426;DHT22;9340;48.756;9.226;2023-05-07T13:30:07;14.20;99.90
18426;DHT22;9340;48.756;9.226;2023-05-07T13:32:34;14.30;99.90
18426;DHT22;9340;48.756;9.226;2023-05-07T13:35:01;14.50;99.90
18426;DHT22;9340;48.756;9.226;2023-05-07T13:37:28;14.70;99.90
18426;DHT22;9340;48.756;9.226;2023-05-07T13:39:55;14.80;99.90
18426;DHT22;9340;48.756;9.226;2023-05-07T13:42:22;14.80;99.90
18426;DHT22;9340;48.756;9.226;2023-05-07T13:44:48;14.50;99.90
18426;DHT22;9340;48.756;9.226;2023-05-07T13:47:16;14.10;99.90
18426;DHT22;9340;48.756;9.226;2023-05-07T13:49:43;14.00;99.90
18426;DHT22;9340;48.756;9.226;2023-05-07T13:52:09;14.20;99.90
18426;DHT22;9340;48.756;9.226;2023-05-07T13:54:36;14.40;99.90
18426;DHT22;9340;48.756;9.226;2023-05-07T13:57:03;14.60;99.90
18426;DHT22;9340;48.756;9.226;2023-05-07T13:59:30;14.80;99.90
18426;DHT22;9340;48.756;9.226;2023-05-07T14:01:56;15.10;99.90
18426;DHT22;9340;48.756;9.226;2023-05-07T14:04:24;15.30;99.90
18426;DHT22;9340;48.756;9.226;2023-05-07T14:06:51;15.40;99.90
18426;DHT22;9340;48.756;9.226;2023-05-07T14:09:17;15.20;99.90
18426;DHT22;9340;48.756;9.226;2023-05-07T14:11:44;15.10;99.90
18426;DHT22;9340;48.756;9.226;2023-05-07T14:14:12;15.10;99.90
18426;DHT22;9340;48.756;9.226;2023-05-07T14:16:39;15.30;99.90
18426;DHT22;9340;48.756;9.226;2023-05-07T14:19:06;15.50;99.90
18426;DHT22;9340;48.756;9.226;2023-05-07T14:21:34;15.70;99.90
18426;DHT22;9340;48.756;9.226;2023-05-07T14:24:00;15.70;99.90
18426;DHT22;9340;48.756;9.226;2023-05-07T14:26:27;15.60;99.90
18426;DHT22;9340;48.756;9.226;2023-05-07T14:28:54;15.60;99.90
18426;DHT22;9340;48.756;9.226;2023-05-07T14:31:23;15.60;99.90
18426;DHT22;9340;48.756;9.226;2023-05-07T14:33:50;15.40;99.90
18426;DHT22;9340;48.756;9.226;2023-05-07T14:36:17;15.10;99.90
18426;DHT22;9340;48.756;9.226;2023-05-07T14:38:46;15.30;99.90
18426;DHT22;9340;48.756;9.226;2023-05-07T14:41:13;15.50;99.90
18426;DHT22;9340;48.756;9.226;2023-05-07T14:43:40;15.50;99.90
18426;DHT22;9340;48.756;9.226;2023-05-07T14:46:07;15.60;99.90
18426;DHT22;9340;48.756;9.226;2023-05-07T14:48:33;15.80;99.90
18426;DHT22;9340;48.756;9.226;2023-05-07T14:51:00;15.90;99.90
18426;DHT22;9340;48.756;9.226;2023-05-07T14:53:27;16.10;99.90
18426;DHT22;9340;48.756;9.226;2023-05-07T14:55:55;16.20;99.90
18426;DHT22;9340;48.756;9.226;2023-05-07T14:58:21;16.30;99.90
18426;DHT22;9340;48.756;9.226;2023-05-07T15:00:48;16.40;99.90
18426;DHT22;9340;48.756;9.226;2023-05-07T15:03:15;16.10;99.90
18426;DHT22;9340;48.756;9.226;2023-05-07T15:05:42;15.90;99.90
18426;DHT22;9340;48.756;9.226;2023-05-07T15:08:09;15.90;99.90
18426;DHT22;9340;48.756;9.226;2023-05-07T15:10:36;15.90;99.90
18426;DHT22;9340;48.756;9.226;2023-05-07T15:13:09;15.80;99.90
18426;DHT22;9340;48.756;9.226;2023-05-07T15:15:36;15.70;99.90
18426;DHT22;9340;48.756;9.226;2023-05-07T15:18:04;15.60;99.90
18426;DHT22;9340;48.756;9.226;2023-05-07T15:20:31;15.70;99.90
18426;DHT22;9340;48.756;9.226;2023-05-07T15:22:58;15.70;99.90
18426;DHT22;9340;48.756;9.226;2023-05-07T15:25:25;15.90;99.90
18426;DHT22;9340;48.756;9.226;2023-05-07T15:27:51;16.10;99.90
18426;DHT22;9340;48.756;9.226;2023-05-07T15:30:19;16.30;99.90
18426;DHT22;9340;48.756;9.226;2023-05-07T15:32:46;16.70;99.90
18426;DHT22;9340;48.756;9.226;2023-05-07T15:35:13;16.70;99.90
18426;DHT22;9340;48.756;9.226;2023-05-07T15:37:39;16.80;99.90
18426;DHT22;9340;48.756;9.226;2023-05-07T15:40:07;16.60;99.90
18426;DHT22;9340;48.756;9.226;2023-05-07T15:42:34;16.40;99.90
18426;DHT22;9340;48.756;9.226;2023-05-07T15:45:01;16.30;99.90
18426;DHT22;9340;48.756;9.226;2023-05-07T15:47:32;16.10;99.90
18426;DHT22;9340;48.756;9.226;2023-05-07T15:50:00;16.10;99.90